sensor_id;sensor_type;location;lat;lon;timestamp;temperature;humidity
53294;DHT22;39181;53.440;5.644;2023-03-14T00:02:10;8.20;99.90
53294;DHT22;39181;53.440;5.644;2023-03-14T00:04:36;8.30;99.90
53294;DHT22;39181;53.440;5.644;2023-03-14T00:07:02;8.30;99.90
53294;DHT22;39181;53.440;5.644;2023-03-14T00:09:27;8.30;99.90
53294;DHT22;39181;53.440;5.644;2023-03-14T00:11:55;8.40;99.90
53294;DHT22;39181;53.440;5.644;2023-03-14T00:14:20;8.40;99.90
53294;DHT22;39181;53.440;5.644;2023-03-14T00:16:46;8.40;99.90
53294;DHT22;39181;53.440;5.644;2023-03-14T00:19:12;8.40;99.90
53294;DHT22;39181;53.440;5.644;2023-03-14T00:21:37;8.40;99.90
53294;DHT22;39181;53.440;5.644;2023-03-14T00:24:03;8.40;99.90
53294;DHT22;39181;53.440;5.644;2023-03-14T00:26:29;8.40;99.90
53294;DHT22;39181;53.440;5.644;2023-03-14T00:28:54;8.40;99.90
53294;DHT22;39181;53.440;5.644;2023-03-14T00:31:20;8.40;99.90
53294;DHT22;39181;53.440;5.644;2023-03-14T00:33:46;8.40;99.90
53294;DHT22;39181;53.440;5.644;2023-03-14T00:36:14;8.40;99.90
53294;DHT22;39181;53.440;5.644;2023-03-14T00:38:41;8.30;99.90
53294;DHT22;39181;53.440;5.644;2023-03-14T00:41:09;8.30;99.90
53294;DHT22;39181;53.440;5.644;2023-03-14T00:43:35;8.20;99.90
53294;DHT22;39181;53.440;5.644;2023-03-14T00:46:01;8.20;99.90
53294;DHT22;39181;53.440;5.644;2023-03-14T00:48:27;8.10;99.90
53294;DHT22;39181;53.440;5.644;2023-03-14T00:50:52;8.10;99.90
53294;DHT22;39181;53.440;5.644;2023-03-14T00:53:18;8.10;99.90
53294;DHT22;39181;53.440;5.644;2023-03-14T00:55:44;8.20;99.90
53294;DHT22;39181;53.440;5.644;2023-03-14T00:58:14;8.20;99.90
53294;DHT22;39181;53.440;5.644;2023-03-14T01:00:41;8.20;99.90
53294;DHT22;39181;53.440;5.644;2023-03-14T01:03:07;8.30;99.90
53294;DHT22;39181;53.440;5.644;2023-03-14T01:05:33;8.40;99.90
53294;DHT22;39181;53.440;5.644;2023-03-14T01:07:59;8.40;99.90
53294;DHT22;39181;53.440;5.644;2023-03-14T01:10:25;8.40;99.90
53294;DHT22;39181;53.440;5.644;2023-03-14T01:12:51;8.50;99.90
53294;DHT22;39181;53.440;5.644;2023-03-14T01:15:17;8.50;99.90
53294;DHT22;39181;53.440;5.644;2023-03-14T01:17:42;8.50;99.90
53294;DHT22;39181;53.440;5.644;2023-03-14T01:20:10;8.50;99.90
53294;DHT22;39181;53.440;5.644;2023-03-14T01:22:36;8.50;99.90
53294;DHT22;39181;53.440;5.644;2023-03-14T01:25:05;8.50;99.90
53294;DHT22;39181;53.440;5.644;2023-03-14T01:27:32;8.40;99.90
53294;DHT22;39181;53.440;5.644;2023-03-14T01:29:58;8.40;99.90
53294;DHT22;39181;53.440;5.644;2023-03-14T01:32:24;8.40;99.90
53294;DHT22;39181;53.440;5.644;2023-03-14T01:34:50;8.40;99.90
53294;DHT22;39181;53.440;5.644;2023-03-14T01:37:16;8.40;99.90
53294;DHT22;39181;53.440;5.644;2023-03-14T01:39:42;8.40;99.90
53294;DHT22;39181;53.440;5.644;2023-03-14T01:42:07;8.40;99.90
53294;DHT22;39181;53.440;5.644;2023-03-14T01:47:17;8.30;99.90
53294;DHT22;39181;53.440;5.644;2023-03-14T01:49:45;8.30;99.90
53294;DHT22;39181;53.440;5.644;2023-03-14T01:52:43;8.30;99.90
53294;DHT22;39181;53.440;5.644;2023-03-14T01:55:13;8.30;99.90
53294;DHT22;39181;53.440;5.644;2023-03-14T01:57:54;8.30;99.90
53294;DHT22;39181;53.440;5.644;2023-03-14T02:00:23;8.30;99.90
53294;DHT22;39181;53.440;5.644;2023-03-14T02:02:55;8.20;99.90
53294;DHT22;39181;53.440;5.644;2023-03-14T02:05:25;8.10;99.90
53294;DHT22;39181;53.440;5.644;2023-03-14T02:07:56;8.20;99.90
53294;DHT22;39181;53.440;5.644;2023-03-14T02:10:25;8.20;99.90
53294;DHT22;39181;53.440;5.644;2023-03-14T02:12:54;8.20;99.90
53294;DHT22;39181;53.440;5.644;2023-03-14T02:15:21;8.20;99.90
53294;DHT22;39181;53.440;5.644;2023-03-14T02:17:47;8.10;99.90
53294;DHT22;39181;53.440;5.644;2023-03-14T02:22:53;8.10;99.90
53294;DHT22;39181;53.440;5.644;2023-03-14T02:25:31;8.10;99.90
53294;DHT22;39181;53.440;5.644;2023-03-14T02:28:00;8.10;99.90
53294;DHT22;39181;53.440;5.644;2023-03-14T02:30:28;8.10;99.90
53294;DHT22;39181;53.440;5.644;2023-03-14T02:33:04;8.10;99.90
53294;DHT22;39181;53.440;5.644;2023-03-14T02:36:19;8.10;99.90
53294;DHT22;39181;53.440;5.644;2023-03-14T02:38:24;8.10;99.90
53294;DHT22;39181;53.440;5.644;2023-03-14T02:40:51;8.00;99.90
53294;DHT22;39181;53.440;5.644;2023-03-14T02:43:17;8.00;99.90
53294;DHT22;39181;53.440;5.644;2023-03-14T02:45:47;8.00;99.90
53294;DHT22;39181;53.440;5.644;2023-03-14T02:48:41;8.00;99.90
53294;DHT22;39181;53.440;5.644;2023-03-14T02:51:08;8.00;99.90
53294;DHT22;39181;53.440;5.644;2023-03-14T02:53:36;8.00;99.90
53294;DHT22;39181;53.440;5.644;2023-03-14T02:56:02;8.10;99.90
53294;DHT22;39181;53.440;5.644;2023-03-14T02:58:28;8.00;99.90
53294;DHT22;39181;53.440;5.644;2023-03-14T03:00:54;8.10;99.90
53294;DHT22;39181;53.440;5.644;2023-03-14T03:03:20;8.10;99.90
53294;DHT22;39181;53.440;5.644;2023-03-14T03:05:48;8.10;99.90
53294;DHT22;39181;53.440;5.644;2023-03-14T03:08:15;8.10;99.90
53294;DHT22;39181;53.440;5.644;2023-03-14T03:10:41;8.10;99.90
53294;DHT22;39181;53.440;5.644;2023-03-14T03:13:06;8.10;99.90
53294;DHT22;39181;53.440;5.644;2023-03-14T03:15:32;8.20;99.90
53294;DHT22;39181;53.440;5.644;2023-03-14T03:17:58;8.20;99.90
53294;DHT22;39181;53.440;5.644;2023-03-14T03:20:23;8.20;99.90
53294;DHT22;39181;53.440;5.644;2023-03-14T03:22:49;8.20;99.90
53294;DHT22;39181;53.440;5.644;2023-03-14T03:25:15;8.20;99.90
53294;DHT22;39181;53.440;5.644;2023-03-14T03:27:41;8.20;99.90
53294;DHT22;39181;53.440;5.644;2023-03-14T03:30:07;8.20;99.90
53294;DHT22;39181;53.440;5.644;2023-03-14T03:32:33;8.20;99.90
53294;DHT22;39181;53.440;5.644;2023-03-14T03:34:59;8.20;99.90
53294;DHT22;39181;53.440;5.644;2023-03-14T03:37:24;8.20;99.90
53294;DHT22;39181;53.440;5.644;2023-03-14T03:39:51;8.20;99.90
53294;DHT22;39181;53.440;5.644;2023-03-14T03:42:17;8.20;99.90
53294;DHT22;39181;53.440;5.644;2023-03-14T03:44:42;8.20;99.90
53294;DHT22;39181;53.440;5.644;2023-03-14T03:47:08;8.20;99.90
53294;DHT22;39181;53.440;5.644;2023-03-14T03:49:34;8.10;99.90
53294;DHT22;39181;53.440;5.644;2023-03-14T03:51:59;8.20;99.90
53294;DHT22;39181;53.440;5.644;2023-03-14T03:54:25;8.20;99.90
53294;DHT22;39181;53.440;5.644;2023-03-14T03:56:51;8.10;99.90
53294;DHT22;39181;53.440;5.644;2023-03-14T03:59:17;8.10;99.90
53294;DHT22;39181;53.440;5.644;2023-03-14T04:01:43;8.10;99.90
53294;DHT22;39181;53.440;5.644;2023-03-14T04:04:08;8.20;99.90
53294;DHT22;39181;53.440;5.644;2023-03-14T04:06:34;8.20;99.90
53294;DHT22;39181;53.440;5.644;2023-03-14T04:09:00;8.20;99.90
53294;DHT22;39181;53.440;5.644;2023-03-14T04:11:25;8.20;99.90
53294;DHT22;39181;53.440;5.644;2023-03-14T04:13:51;8.10;99.90
53294;DHT22;39181;53.440;5.644;2023-03-14T04:16:20;8.20;99.90
53294;DHT22;39181;53.440;5.644;2023-03-14T04:18:47;8.10;99.90
53294;DHT22;39181;53.440;5.644;2023-03-14T04:21:12;8.10;99.90
53294;DHT22;39181;53.440;5.644;2023-03-14T04:23:38;8.10;99.90
53294;DHT22;39181;53.440;5.644;2023-03-14T04:26:04;8.00;99.90
53294;DHT22;39181;53.440;5.644;2023-03-14T04:28:30;8.00;99.90
53294;DHT22;39181;53.440;5.644;2023-03-14T04:30:55;8.00;99.90
53294;DHT22;39181;53.440;5.644;2023-03-14T04:33:21;8.10;99.90
53294;DHT22;39181;53.440;5.644;2023-03-14T04:35:47;8.00;99.90
53294;DHT22;39181;53.440;5.644;2023-03-14T04:38:13;8.00;99.90
53294;DHT22;39181;53.440;5.644;2023-03-14T04:40:40;8.00;99.90
53294;DHT22;39181;53.440;5.644;2023-03-14T04:43:07;8.00;99.90
53294;DHT22;39181;53.440;5.644;2023-03-14T04:45:32;7.90;99.90
53294;DHT22;39181;53.440;5.644;2023-03-14T04:47:58;7.90;99.90
53294;DHT22;39181;53.440;5.644;2023-03-14T04:50:24;7.90;99.90
53294;DHT22;39181;53.440;5.644;2023-03-14T04:52:49;7.90;99.90
53294;DHT22;39181;53.440;5.644;2023-03-14T04:55:15;7.90;99.90
53294;DHT22;39181;53.440;5.644;2023-03-14T04:57:40;7.90;99.90
53294;DHT22;39181;53.440;5.644;2023-03-14T05:00:07;7.90;99.90
53294;DHT22;39181;53.440;5.644;2023-03-14T05:02:33;7.90;99.90
53294;DHT22;39181;53.440;5.644;2023-03-14T05:04:59;7.90;99.90
53294;DHT22;39181;53.440;5.644;2023-03-14T05:07:24;7.80;99.90
53294;DHT22;39181;53.440;5.644;2023-03-14T05:09:50;7.80;99.90
53294;DHT22;39181;53.440;5.644;2023-03-14T05:12:16;7.70;99.90
53294;DHT22;39181;53.440;5.644;2023-03-14T05:14:41;7.60;99.90
53294;DHT22;39181;53.440;5.644;2023-03-14T05:17:07;7.50;99.90
53294;DHT22;39181;53.440;5.644;2023-03-14T05:19:33;7.40;99.90
53294;DHT22;39181;53.440;5.644;2023-03-14T05:21:58;7.30;99.90
53294;DHT22;39181;53.440;5.644;2023-03-14T05:24:24;7.20;99.90
53294;DHT22;39181;53.440;5.644;2023-03-14T05:26:49;7.10;99.90
53294;DHT22;39181;53.440;5.644;2023-03-14T05:29:15;7.00;99.90
53294;DHT22;39181;53.440;5.644;2023-03-14T05:31:40;6.90;99.90
53294;DHT22;39181;53.440;5.644;2023-03-14T05:34:06;6.80;99.90
53294;DHT22;39181;53.440;5.644;2023-03-14T05:36:31;6.70;99.90
53294;DHT22;39181;53.440;5.644;2023-03-14T05:38:57;6.60;99.90
53294;DHT22;39181;53.440;5.644;2023-03-14T05:41:22;6.50;99.90
53294;DHT22;39181;53.440;5.644;2023-03-14T05:43:48;6.30;99.90
53294;DHT22;39181;53.440;5.644;2023-03-14T05:46:14;6.30;99.90
53294;DHT22;39181;53.440;5.644;2023-03-14T05:48:39;6.20;99.90
53294;DHT22;39181;53.440;5.644;2023-03-14T05:51:05;6.10;99.90
53294;DHT22;39181;53.440;5.644;2023-03-14T05:53:30;5.90;99.90
53294;DHT22;39181;53.440;5.644;2023-03-14T05:55:56;5.90;99.90
53294;DHT22;39181;53.440;5.644;2023-03-14T05:58:22;5.80;99.90
53294;DHT22;39181;53.440;5.644;2023-03-14T06:00:48;5.70;99.90
53294;DHT22;39181;53.440;5.644;2023-03-14T06:03:14;5.70;99.90
53294;DHT22;39181;53.440;5.644;2023-03-14T06:05:39;5.60;99.90
53294;DHT22;39181;53.440;5.644;2023-03-14T06:08:05;5.50;99.90
53294;DHT22;39181;53.440;5.644;2023-03-14T06:10:31;5.50;99.90
53294;DHT22;39181;53.440;5.644;2023-03-14T06:12:56;5.40;99.90
53294;DHT22;39181;53.440;5.644;2023-03-14T06:15:22;5.30;99.90
53294;DHT22;39181;53.440;5.644;2023-03-14T06:17:47;5.30;99.90
53294;DHT22;39181;53.440;5.644;2023-03-14T06:20:13;5.30;99.90
53294;DHT22;39181;53.440;5.644;2023-03-14T06:22:39;5.30;99.90
53294;DHT22;39181;53.440;5.644;2023-03-14T06:25:06;5.20;99.90
53294;DHT22;39181;53.440;5.644;2023-03-14T06:27:33;5.30;99.90
53294;DHT22;39181;53.440;5.644;2023-03-14T06:29:58;5.30;99.90
53294;DHT22;39181;53.440;5.644;2023-03-14T06:32:24;5.20;99.90
53294;DHT22;39181;53.440;5.644;2023-03-14T06:34:50;5.10;99.90
53294;DHT22;39181;53.440;5.644;2023-03-14T06:37:16;5.20;99.90
53294;DHT22;39181;53.440;5.644;2023-03-14T06:39:41;5.20;99.90
53294;DHT22;39181;53.440;5.644;2023-03-14T06:42:09;5.20;99.90
53294;DHT22;39181;53.440;5.644;2023-03-14T06:44:35;5.20;99.90
53294;DHT22;39181;53.440;5.644;2023-03-14T06:47:01;5.20;99.90
53294;DHT22;39181;53.440;5.644;2023-03-14T06:49:26;5.10;99.90
53294;DHT22;39181;53.440;5.644;2023-03-14T06:51:52;5.00;99.90
53294;DHT22;39181;53.440;5.644;2023-03-14T06:54:17;5.10;99.90
53294;DHT22;39181;53.440;5.644;2023-03-14T06:56:43;5.10;99.90
53294;DHT22;39181;53.440;5.644;2023-03-14T06:59:09;5.30;99.90
53294;DHT22;39181;53.440;5.644;2023-03-14T07:01:34;5.30;99.90
53294;DHT22;39181;53.440;5.644;2023-03-14T07:04:03;5.30;99.90
53294;DHT22;39181;53.440;5.644;2023-03-14T07:06:28;5.30;99.90
53294;DHT22;39181;53.440;5.644;2023-03-14T07:08:55;5.30;99.90
53294;DHT22;39181;53.440;5.644;2023-03-14T07:11:23;5.40;99.90
53294;DHT22;39181;53.440;5.644;2023-03-14T07:13:48;5.40;99.90
53294;DHT22;39181;53.440;5.644;2023-03-14T07:16:14;5.50;99.90
53294;DHT22;39181;53.440;5.644;2023-03-14T07:18:40;5.50;99.90
53294;DHT22;39181;53.440;5.644;2023-03-14T07:21:07;5.50;99.90
53294;DHT22;39181;53.440;5.644;2023-03-14T07:23:33;5.50;99.90
53294;DHT22;39181;53.440;5.644;2023-03-14T07:25:59;5.50;99.90
53294;DHT22;39181;53.440;5.644;2023-03-14T07:28:24;5.40;99.90
53294;DHT22;39181;53.440;5.644;2023-03-14T07:30:50;5.40;99.90
53294;DHT22;39181;53.440;5.644;2023-03-14T07:33:16;5.50;99.90
53294;DHT22;39181;53.440;5.644;2023-03-14T07:35:41;5.50;99.90
53294;DHT22;39181;53.440;5.644;2023-03-14T07:38:07;5.40;99.90
53294;DHT22;39181;53.440;5.644;2023-03-14T07:40:32;5.50;99.90
53294;DHT22;39181;53.440;5.644;2023-03-14T07:42:58;5.60;99.90
53294;DHT22;39181;53.440;5.644;2023-03-14T07:45:24;5.60;99.90
53294;DHT22;39181;53.440;5.644;2023-03-14T07:47:49;5.60;99.90
53294;DHT22;39181;53.440;5.644;2023-03-14T07:50:15;5.70;99.90
53294;DHT22;39181;53.440;5.644;2023-03-14T07:52:41;5.80;99.90
53294;DHT22;39181;53.440;5.644;2023-03-14T07:55:06;5.80;99.90
53294;DHT22;39181;53.440;5.644;2023-03-14T07:57:32;5.80;99.90
53294;DHT22;39181;53.440;5.644;2023-03-14T07:59:58;5.90;99.90
53294;DHT22;39181;53.440;5.644;2023-03-14T08:02:23;6.00;99.90
53294;DHT22;39181;53.440;5.644;2023-03-14T08:04:50;6.00;99.90
53294;DHT22;39181;53.440;5.644;2023-03-14T08:07:15;6.00;99.90
53294;DHT22;39181;53.440;5.644;2023-03-14T08:09:41;6.00;99.90
53294;DHT22;39181;53.440;5.644;2023-03-14T08:12:07;5.90;99.90
53294;DHT22;39181;53.440;5.644;2023-03-14T08:14:33;5.90;99.90
53294;DHT22;39181;53.440;5.644;2023-03-14T08:16:59;5.90;99.90
53294;DHT22;39181;53.440;5.644;2023-03-14T08:19:24;5.90;99.90
53294;DHT22;39181;53.440;5.644;2023-03-14T08:21:50;6.00;99.90
53294;DHT22;39181;53.440;5.644;2023-03-14T08:24:16;5.90;99.90
53294;DHT22;39181;53.440;5.644;2023-03-14T08:26:41;6.00;99.90
53294;DHT22;39181;53.440;5.644;2023-03-14T08:29:07;6.10;99.90
53294;DHT22;39181;53.440;5.644;2023-03-14T08:31:34;6.20;99.90
53294;DHT22;39181;53.440;5.644;2023-03-14T08:34:01;6.20;99.90
53294;DHT22;39181;53.440;5.644;2023-03-14T08:36:27;6.20;99.90
53294;DHT22;39181;53.440;5.644;2023-03-14T08:38:53;6.30;99.90
53294;DHT22;39181;53.440;5.644;2023-03-14T08:41:19;6.30;99.90
53294;DHT22;39181;53.440;5.644;2023-03-14T08:43:44;6.30;99.90
53294;DHT22;39181;53.440;5.644;2023-03-14T08:46:10;6.30;99.90
53294;DHT22;39181;53.440;5.644;2023-03-14T08:48:35;6.40;99.90
53294;DHT22;39181;53.440;5.644;2023-03-14T08:51:12;6.40;99.90
53294;DHT22;39181;53.440;5.644;2023-03-14T08:53:39;6.40;99.90
53294;DHT22;39181;53.440;5.644;2023-03-14T08:56:06;6.40;99.90
53294;DHT22;39181;53.440;5.644;2023-03-14T08:58:32;6.40;99.90
53294;DHT22;39181;53.440;5.644;2023-03-14T09:00:58;6.40;99.90
53294;DHT22;39181;53.440;5.644;2023-03-14T09:03:25;6.40;99.90
53294;DHT22;39181;53.440;5.644;2023-03-14T09:05:51;6.50;99.90
53294;DHT22;39181;53.440;5.644;2023-03-14T09:08:17;6.60;99.90
53294;DHT22;39181;53.440;5.644;2023-03-14T09:10:42;6.70;99.90
53294;DHT22;39181;53.440;5.644;2023-03-14T09:13:08;6.80;99.90
53294;DHT22;39181;53.440;5.644;2023-03-14T09:15:33;6.80;99.90
53294;DHT22;39181;53.440;5.644;2023-03-14T09:17:59;7.00;99.90
53294;DHT22;39181;53.440;5.644;2023-03-14T09:20:25;7.10;99.90
53294;DHT22;39181;53.440;5.644;2023-03-14T09:22:50;7.20;99.90
53294;DHT22;39181;53.440;5.644;2023-03-14T09:25:16;7.30;99.90
53294;DHT22;39181;53.440;5.644;2023-03-14T09:27:42;7.30;99.90
53294;DHT22;39181;53.440;5.644;2023-03-14T09:30:08;7.30;99.90
53294;DHT22;39181;53.440;5.644;2023-03-14T09:32:34;7.20;99.90
53294;DHT22;39181;53.440;5.644;2023-03-14T09:35:00;7.00;99.90
53294;DHT22;39181;53.440;5.644;2023-03-14T09:37:25;6.90;99.90
53294;DHT22;39181;53.440;5.644;2023-03-14T09:39:51;6.90;99.90
53294;DHT22;39181;53.440;5.644;2023-03-14T09:42:20;6.90;99.90
53294;DHT22;39181;53.440;5.644;2023-03-14T09:47:16;7.00;99.90
53294;DHT22;39181;53.440;5.644;2023-03-14T09:49:45;7.10;99.90
53294;DHT22;39181;53.440;5.644;2023-03-14T09:52:18;7.00;99.90
53294;DHT22;39181;53.440;5.644;2023-03-14T09:54:54;7.00;99.90
53294;DHT22;39181;53.440;5.644;2023-03-14T09:57:24;6.90;99.90
53294;DHT22;39181;53.440;5.644;2023-03-14T09:59:51;6.90;99.90
53294;DHT22;39181;53.440;5.644;2023-03-14T10:02:24;7.00;99.90
53294;DHT22;39181;53.440;5.644;2023-03-14T10:04:52;7.10;99.90
53294;DHT22;39181;53.440;5.644;2023-03-14T10:07:24;7.30;99.90
53294;DHT22;39181;53.440;5.644;2023-03-14T10:09:51;7.40;99.90
53294;DHT22;39181;53.440;5.644;2023-03-14T10:12:19;7.40;99.90
53294;DHT22;39181;53.440;5.644;2023-03-14T10:14:53;7.40;99.90
53294;DHT22;39181;53.440;5.644;2023-03-14T10:17:20;7.30;99.90
53294;DHT22;39181;53.440;5.644;2023-03-14T10:19:55;7.20;99.90
53294;DHT22;39181;53.440;5.644;2023-03-14T10:22:22;7.20;99.90
53294;DHT22;39181;53.440;5.644;2023-03-14T10:24:57;7.20;99.90
53294;DHT22;39181;53.440;5.644;2023-03-14T10:27:33;7.20;99.90
53294;DHT22;39181;53.440;5.644;2023-03-14T10:30:02;7.20;99.90
53294;DHT22;39181;53.440;5.644;2023-03-14T10:32:36;7.30;99.90
53294;DHT22;39181;53.440;5.644;2023-03-14T10:35:08;7.30;99.90
53294;DHT22;39181;53.440;5.644;2023-03-14T10:37:52;7.30;99.90
53294;DHT22;39181;53.440;5.644;2023-03-14T10:40:21;7.40;99.90
53294;DHT22;39181;53.440;5.644;2023-03-14T10:42:48;7.40;99.90
53294;DHT22;39181;53.440;5.644;2023-03-14T10:45:27;7.40;99.90
53294;DHT22;39181;53.440;5.644;2023-03-14T10:47:54;7.50;99.90
53294;DHT22;39181;53.440;5.644;2023-03-14T10:50:28;7.50;99.90
53294;DHT22;39181;53.440;5.644;2023-03-14T10:52:55;7.60;99.90
53294;DHT22;39181;53.440;5.644;2023-03-14T10:55:24;7.60;99.90
53294;DHT22;39181;53.440;5.644;2023-03-14T10:57:51;7.70;99.90
53294;DHT22;39181;53.440;5.644;2023-03-14T11:00:22;7.90;99.90
53294;DHT22;39181;53.440;5.644;2023-03-14T11:03:10;8.00;99.90
53294;DHT22;39181;53.440;5.644;2023-03-14T11:05:49;8.20;99.90
53294;DHT22;39181;53.440;5.644;2023-03-14T11:08:31;8.40;99.90
53294;DHT22;39181;53.440;5.644;2023-03-14T11:11:21;8.40;99.90
53294;DHT22;39181;53.440;5.644;2023-03-14T11:16:53;7.90;99.90
53294;DHT22;39181;53.440;5.644;2023-03-14T11:22:23;7.60;99.90
53294;DHT22;39181;53.440;5.644;2023-03-14T11:25:21;7.60;99.90
53294;DHT22;39181;53.440;5.644;2023-03-14T11:28:13;7.60;99.90
53294;DHT22;39181;53.440;5.644;2023-03-14T11:33:20;7.50;99.90
53294;DHT22;39181;53.440;5.644;2023-03-14T11:36:09;7.40;99.90
53294;DHT22;39181;53.440;5.644;2023-03-14T11:38:49;7.50;99.90
53294;DHT22;39181;53.440;5.644;2023-03-14T11:41:37;7.60;99.90
53294;DHT22;39181;53.440;5.644;2023-03-14T11:44:14;7.90;99.90
53294;DHT22;39181;53.440;5.644;2023-03-14T11:46:55;8.00;99.90
53294;DHT22;39181;53.440;5.644;2023-03-14T11:51:59;7.80;99.90
53294;DHT22;39181;53.440;5.644;2023-03-14T11:56:58;7.80;99.90
53294;DHT22;39181;53.440;5.644;2023-03-14T11:59:29;7.70;99.90
53294;DHT22;39181;53.440;5.644;2023-03-14T12:02:02;7.70;99.90
53294;DHT22;39181;53.440;5.644;2023-03-14T12:04:42;7.70;99.90
53294;DHT22;39181;53.440;5.644;2023-03-14T12:07:34;7.70;99.90
53294;DHT22;39181;53.440;5.644;2023-03-14T12:10:03;7.60;99.90
53294;DHT22;39181;53.440;5.644;2023-03-14T12:12:30;7.70;99.90
53294;DHT22;39181;53.440;5.644;2023-03-14T12:15:01;7.70;99.90
53294;DHT22;39181;53.440;5.644;2023-03-14T12:17:53;7.80;99.90
53294;DHT22;39181;53.440;5.644;2023-03-14T12:20:24;7.90;99.90
53294;DHT22;39181;53.440;5.644;2023-03-14T12:22:53;7.90;99.90
53294;DHT22;39181;53.440;5.644;2023-03-14T12:25:27;7.80;99.90
53294;DHT22;39181;53.440;5.644;2023-03-14T12:30:29;7.90;99.90
53294;DHT22;39181;53.440;5.644;2023-03-14T12:35:52;7.90;99.90
53294;DHT22;39181;53.440;5.644;2023-03-14T12:38:45;7.90;99.90
53294;DHT22;39181;53.440;5.644;2023-03-14T12:43:51;8.00;99.90
53294;DHT22;39181;53.440;5.644;2023-03-14T12:46:27;8.10;99.90
53294;DHT22;39181;53.440;5.644;2023-03-14T12:59:33;8.00;99.90
53294;DHT22;39181;53.440;5.644;2023-03-14T13:04:34;8.00;99.90
53294;DHT22;39181;53.440;5.644;2023-03-14T13:07:02;8.00;99.90
53294;DHT22;39181;53.440;5.644;2023-03-14T13:12:13;8.00;99.90
53294;DHT22;39181;53.440;5.644;2023-03-14T13:14:47;7.90;99.90
53294;DHT22;39181;53.440;5.644;2023-03-14T13:17:15;7.80;99.90
53294;DHT22;39181;53.440;5.644;2023-03-14T13:19:55;7.80;99.90
53294;DHT22;39181;53.440;5.644;2023-03-14T13:22:30;7.90;99.90
53294;DHT22;39181;53.440;5.644;2023-03-14T13:25:02;8.00;99.90
53294;DHT22;39181;53.440;5.644;2023-03-14T13:27:30;8.20;99.90
53294;DHT22;39181;53.440;5.644;2023-03-14T13:29:57;8.20;99.90
53294;DHT22;39181;53.440;5.644;2023-03-14T13:32:27;8.10;99.90
53294;DHT22;39181;53.440;5.644;2023-03-14T13:34:57;8.00;99.90
53294;DHT22;39181;53.440;5.644;2023-03-14T13:37:25;8.00;99.90
53294;DHT22;39181;53.440;5.644;2023-03-14T13:39:56;7.90;99.90
53294;DHT22;39181;53.440;5.644;2023-03-14T13:42:27;7.80;99.90
53294;DHT22;39181;53.440;5.644;2023-03-14T13:44:55;7.70;99.90
53294;DHT22;39181;53.440;5.644;2023-03-14T13:47:23;7.70;99.90
53294;DHT22;39181;53.440;5.644;2023-03-14T13:49:50;7.60;99.90
53294;DHT22;39181;53.440;5.644;2023-03-14T13:52:37;7.70;99.90
53294;DHT22;39181;53.440;5.644;2023-03-14T13:55:04;7.80;99.90
53294;DHT22;39181;53.440;5.644;2023-03-14T13:57:44;7.90;99.90
53294;DHT22;39181;53.440;5.644;2023-03-14T14:00:19;8.00;99.90
53294;DHT22;39181;53.440;5.644;2023-03-14T14:02:45;8.00;99.90
53294;DHT22;39181;53.440;5.644;2023-03-14T14:05:12;7.90;99.90
53294;DHT22;39181;53.440;5.644;2023-03-14T14:07:38;7.90;99.90
53294;DHT22;39181;53.440;5.644;2023-03-14T14:10:05;7.70;99.90
53294;DHT22;39181;53.440;5.644;2023-03-14T14:12:39;7.70;99.90
53294;DHT22;39181;53.440;5.644;2023-03-14T14:15:13;7.50;99.90
53294;DHT22;39181;53.440;5.644;2023-03-14T14:17:43;7.40;99.90
53294;DHT22;39181;53.440;5.644;2023-03-14T14:20:26;7.30;99.90
53294;DHT22;39181;53.440;5.644;2023-03-14T14:22:57;7.30;99.90
53294;DHT22;39181;53.440;5.644;2023-03-14T14:25:24;7.20;99.90
53294;DHT22;39181;53.440;5.644;2023-03-14T14:27:51;7.10;99.90
53294;DHT22;39181;53.440;5.644;2023-03-14T14:32:42;6.90;99.90
53294;DHT22;39181;53.440;5.644;2023-03-14T14:35:17;6.90;99.90
53294;DHT22;39181;53.440;5.644;2023-03-14T14:37:47;6.60;99.90
53294;DHT22;39181;53.440;5.644;2023-03-14T14:40:20;6.60;99.90
53294;DHT22;39181;53.440;5.644;2023-03-14T14:42:46;6.60;99.90
53294;DHT22;39181;53.440;5.644;2023-03-14T14:45:23;6.70;99.90
53294;DHT22;39181;53.440;5.644;2023-03-14T14:47:52;6.60;99.90
53294;DHT22;39181;53.440;5.644;2023-03-14T14:53:00;6.70;99.90
53294;DHT22;39181;53.440;5.644;2023-03-14T14:55:34;6.70;99.90
53294;DHT22;39181;53.440;5.644;2023-03-14T15:01:13;6.80;99.90
53294;DHT22;39181;53.440;5.644;2023-03-14T15:03:37;6.90;99.90
53294;DHT22;39181;53.440;5.644;2023-03-14T15:06:03;6.90;99.90
53294;DHT22;39181;53.440;5.644;2023-03-14T15:08:29;6.90;99.90
53294;DHT22;39181;53.440;5.644;2023-03-14T15:10:56;6.80;99.90
53294;DHT22;39181;53.440;5.644;2023-03-14T15:13:22;6.70;99.90
53294;DHT22;39181;53.440;5.644;2023-03-14T15:15:49;6.80;99.90
53294;DHT22;39181;53.440;5.644;2023-03-14T15:18:22;6.70;99.90
53294;DHT22;39181;53.440;5.644;2023-03-14T15:20:48;6.70;99.90
53294;DHT22;39181;53.440;5.644;2023-03-14T15:23:16;6.80;99.90
53294;DHT22;39181;53.440;5.644;2023-03-14T15:25:42;6.70;99.90
53294;DHT22;39181;53.440;5.644;2023-03-14T15:28:18;6.70;99.90
53294;DHT22;39181;53.440;5.644;2023-03-14T15:30:47;6.90;99.90
53294;DHT22;39181;53.440;5.644;2023-03-14T15:33:13;6.80;99.90
53294;DHT22;39181;53.440;5.644;2023-03-14T15:35:38;6.70;99.90
53294;DHT22;39181;53.440;5.644;2023-03-14T15:38:04;6.70;99.90
53294;DHT22;39181;53.440;5.644;2023-03-14T15:40:30;6.60;99.90
53294;DHT22;39181;53.440;5.644;2023-03-14T15:42:56;6.60;99.90
53294;DHT22;39181;53.440;5.644;2023-03-14T15:45:21;6.60;99.90
53294;DHT22;39181;53.440;5.644;2023-03-14T15:47:47;6.50;99.90
53294;DHT22;39181;53.440;5.644;2023-03-14T15:50:13;6.40;99.90
53294;DHT22;39181;53.440;5.644;2023-03-14T15:52:38;6.40;99.90
53294;DHT22;39181;53.440;5.644;2023-03-14T15:55:04;6.40;99.90
53294;DHT22;39181;53.440;5.644;2023-03-14T15:57:30;6.30;99.90
53294;DHT22;39181;53.440;5.644;2023-03-14T15:59:55;6.20;99.90
53294;DHT22;39181;53.440;5.644;2023-03-14T16:02:21;6.50;99.90
53294;DHT22;39181;53.440;5.644;2023-03-14T16:04:47;6.00;99.90
53294;DHT22;39181;53.440;5.644;2023-03-14T16:07:12;6.10;99.90
53294;DHT22;39181;53.440;5.644;2023-03-14T16:09:38;6.20;99.90
53294;DHT22;39181;53.440;5.644;2023-03-14T16:12:03;6.30;99.90
53294;DHT22;39181;53.440;5.644;2023-03-14T16:14:30;6.20;99.90
53294;DHT22;39181;53.440;5.644;2023-03-14T16:16:56;6.00;99.90
53294;DHT22;39181;53.440;5.644;2023-03-14T16:19:24;5.90;99.90
53294;DHT22;39181;53.440;5.644;2023-03-14T16:21:51;5.70;99.90
53294;DHT22;39181;53.440;5.644;2023-03-14T16:24:17;5.50;99.90
53294;DHT22;39181;53.440;5.644;2023-03-14T16:26:43;5.40;99.90
53294;DHT22;39181;53.440;5.644;2023-03-14T16:29:09;5.20;99.90
53294;DHT22;39181;53.440;5.644;2023-03-14T16:31:35;5.10;99.90
53294;DHT22;39181;53.440;5.644;2023-03-14T16:34:10;5.10;99.90
53294;DHT22;39181;53.440;5.644;2023-03-14T16:36:36;5.00;99.90
53294;DHT22;39181;53.440;5.644;2023-03-14T16:39:02;4.80;99.90
53294;DHT22;39181;53.440;5.644;2023-03-14T16:41:28;4.60;99.90
53294;DHT22;39181;53.440;5.644;2023-03-14T16:43:57;4.50;99.90
53294;DHT22;39181;53.440;5.644;2023-03-14T16:46:22;4.50;99.90